Highland Park, NJ

7:23 PM EDT on September 18, 2014 (GMT -0400)
River Road | Change Station
CLOSE
Current Station
Personal Weather Station
Location: Highland Park, NJ
Elevation: 46 ft
Nearby Weather Stations

Elev 46 ft 40.50 °N, 74.44 °W | Updated 2 minutes ago

Partly Cloudy
Partly Cloudy
70.2 °F
Feels Like 77 °F
N
0.0
Wind Variable Wind from North
Gusts 0.0 mph

Today
High -- | Low -- °F
--% Chance of Precip.
Yesterday
High -- | Low -- °F
Precip. -- in
6:41 AM 7:01 PM
Waning Crescent, 24% visible
Pressure 30.02 in
Visibility 10.0 miles
Clouds Clear
Heat Index 77 °F
Dew Point 51 °F
Humidity 51%
Rainfall 0.00 in
Snow Depth Not available.
UV 0 out of 12
Pollen 3.40 out of 12
Air Quality Not available.
Flu Activity Not available.
METAR KLDJ 182315Z AUTO 34003KT 10SM CLR 23/10 A3002 RMK AO2 T02330099

More Conditions Fewer Conditions

Pressure 30.02 in
Visibility 10.0 miles
Clouds Clear
Heat Index 77 °F
Dew Point 51 °F
Humidity 51%
Rainfall 0.00 in
Snow Depth Not available.
UV 0 out of 12
Pollen 3.40 out of 12
Air Quality Not available.
Flu Activity Not available.
METAR KLDJ 182315Z AUTO 34003KT 10SM CLR 23/10 A3002 RMK AO2 T02330099

More Conditions Fewer Conditions

10-Day Weather Forecast

Almanac

Astronomy

Sep. 18, 2014 Rise Set
Actual Time 6:41 AM EDT 7:01 PM EDT
Civil Twilight 6:14 AM EDT 7:28 PM EDT
Nautical Twilight 5:41 AM EDT 8:00 PM EDT
Astronomical Twilight 5:09 AM EDT 8:33 PM EDT
Moon 1:30 AM EDT 3:51 PM EDT
Length of Visible Light 13h 14m
Length of Day
12h 20m
Tomorrow will be 2m 39s shorter.
Waning Crescent, 24% of the Moon is Illuminated
Today
Waning Crescent
Sep 24
New
Oct 1
First Quarter
Oct 8
Full
Oct 15
Last Quarter

Today's Extremes

State Highs State Lows

Community

WunderPhotos

Upload Photos

1,754,484 photos uploaded!

WunderBlogs® & News

Nearby

Snow Depth

Station Depth Elevation
No new snow has been reported.

Earthquake Activity

City Distance Mag. Time & Date
No recent earthquake activity has been reported nearby.
Minimum magnitude displayed is 2.5.

Coastal Water Temperatures

Place Temperature
Sandy Hook, NJ 69.1 °F
The Battery, NY 71.1 °F
Bergen Point West Reach, NJ 71.1 °F
Kings Point, NY 70.0 °F

Nearby Weather Stations